createdAt,value
2023-02-11T00:00:57.833Z,56.55
2023-02-11T00:03:24.901Z,56.42
2023-02-11T00:06:02.545Z,55.88
2023-02-11T00:08:29.634Z,51.47
2023-02-11T00:10:57.889Z,53.60
2023-02-11T00:13:25.039Z,49.65
2023-02-11T00:15:52.287Z,54.90
2023-02-11T00:18:19.173Z,55.35
2023-02-11T00:20:46.480Z,60.22
2023-02-11T00:23:13.959Z,55.30
2023-02-11T00:25:45.472Z,62.58
2023-02-11T00:28:12.821Z,58.53
2023-02-11T00:30:39.883Z,61.75
2023-02-11T00:33:07.208Z,59.22
2023-02-11T00:35:33.954Z,62.75
2023-02-11T00:38:01.029Z,66.38
2023-02-11T00:40:27.876Z,62.53
2023-02-11T00:42:54.886Z,61.88
2023-02-11T00:45:22.030Z,60.22
2023-02-11T00:47:49.103Z,67.40
2023-02-11T00:50:15.802Z,59.42
2023-02-11T00:52:42.825Z,60.88
2023-02-11T00:55:09.964Z,63.70
2023-02-11T00:57:36.684Z,57.90
2023-02-11T01:00:05.560Z,59.72
2023-02-11T01:02:32.446Z,56.72
2023-02-11T01:05:00.414Z,58.42
2023-02-11T01:07:28.540Z,59.85
2023-02-11T01:09:55.403Z,55.78
2023-02-11T01:12:22.813Z,57.03
2023-02-11T01:14:49.751Z,57.10
2023-02-11T01:17:16.974Z,58.75
2023-02-11T01:19:44.226Z,52.47
2023-02-11T01:22:11.080Z,53.40
2023-02-11T01:24:38.201Z,52.45
2023-02-11T01:27:05.056Z,54.65
2023-02-11T01:29:32.171Z,51.45
2023-02-11T01:32:01.068Z,50.65
2023-02-11T01:34:31.117Z,54.10
2023-02-11T01:36:59.369Z,58.53
2023-02-11T01:39:26.941Z,54.78
2023-02-11T01:41:54.617Z,58.90
2023-02-11T01:44:27.909Z,58.13
2023-02-11T01:46:54.866Z,55.73
2023-02-11T01:49:30.492Z,62.38
2023-02-11T01:52:08.230Z,59.25
2023-02-11T01:55:01.762Z,56.95
2023-02-11T01:57:31.672Z,64.03
2023-02-11T02:00:21.772Z,59.50
2023-02-11T02:03:08.146Z,61.38
2023-02-11T02:06:08.851Z,60.45
2023-02-11T02:08:43.038Z,59.10
2023-02-11T02:13:36.455Z,58.45
2023-02-11T02:16:10.040Z,58.55
2023-02-11T02:19:00.193Z,62.15
2023-02-11T02:21:42.492Z,63.97
2023-02-11T02:24:31.929Z,62.20
2023-02-11T02:27:37.608Z,56.95
2023-02-11T02:30:53.691Z,55.13
2023-02-11T02:33:38.026Z,60.90
2023-02-11T02:36:33.898Z,64.75
2023-02-11T02:39:22.025Z,60.00
2023-02-11T02:41:49.315Z,61.63
2023-02-11T02:44:15.992Z,59.03
2023-02-11T02:46:42.783Z,59.50
2023-02-11T02:49:13.780Z,57.75
2023-02-11T02:52:07.431Z,63.17
2023-02-11T02:54:55.944Z,55.10
2023-02-11T02:57:39.571Z,57.00
2023-02-11T03:00:25.809Z,57.03
2023-02-11T03:03:22.907Z,57.35
2023-02-11T03:05:52.521Z,55.72
2023-02-11T03:08:34.573Z,55.00
2023-02-11T03:11:02.060Z,56.03
2023-02-11T03:13:34.051Z,59.38
2023-02-11T03:16:15.944Z,61.10
2023-02-11T03:18:46.579Z,58.33
2023-02-11T03:21:14.391Z,59.47
2023-02-11T03:23:45.214Z,57.38
2023-02-11T03:26:20.153Z,56.65
2023-02-11T03:29:25.933Z,58.42
2023-02-11T03:32:05.645Z,55.17
2023-02-11T03:34:42.194Z,59.03
2023-02-11T03:37:13.844Z,59.88
2023-02-11T03:39:49.312Z,57.80
2023-02-11T03:42:16.606Z,58.35
2023-02-11T03:45:00.227Z,55.90
2023-02-11T03:47:28.461Z,64.83
2023-02-11T03:49:55.869Z,63.45
2023-02-11T03:52:23.442Z,65.45
2023-02-11T03:54:54.129Z,63.67
2023-02-11T03:57:20.883Z,60.88
2023-02-11T03:59:56.666Z,58.78
2023-02-11T04:02:26.774Z,53.35
2023-02-11T04:04:53.664Z,53.88
2023-02-11T04:07:20.637Z,57.33
2023-02-11T04:09:47.422Z,53.10
2023-02-11T04:12:14.185Z,56.22
2023-02-11T04:14:40.975Z,59.28
2023-02-11T04:17:07.932Z,61.53
2023-02-11T04:19:34.689Z,56.58
2023-02-11T04:22:01.703Z,57.40
2023-02-11T04:24:28.472Z,60.90
2023-02-11T04:26:55.627Z,56.47
2023-02-11T04:29:22.269Z,61.35
2023-02-11T04:31:49.279Z,59.53
2023-02-11T04:34:16.131Z,58.97
2023-02-11T04:36:43.013Z,56.50
2023-02-11T04:39:10.042Z,61.88
2023-02-11T04:41:36.846Z,63.20
2023-02-11T04:44:03.997Z,56.90
2023-02-11T04:46:31.165Z,61.83
2023-02-11T04:48:58.086Z,62.22
2023-02-11T04:51:24.766Z,58.55
2023-02-11T04:53:51.443Z,60.67
2023-02-11T04:56:18.106Z,61.65
2023-02-11T04:58:44.759Z,60.85
2023-02-11T05:01:14.370Z,58.35
2023-02-11T05:03:41.766Z,57.80
2023-02-11T05:06:10.403Z,53.47
2023-02-11T05:08:37.433Z,58.85
2023-02-11T05:11:04.624Z,56.78
2023-02-11T05:13:32.095Z,52.30
2023-02-11T05:15:58.897Z,52.42
2023-02-11T05:18:25.673Z,57.05
2023-02-11T05:20:52.359Z,54.65
2023-02-11T05:23:19.016Z,56.17
2023-02-11T05:25:45.681Z,61.47
2023-02-11T05:28:12.467Z,57.33
2023-02-11T05:30:39.368Z,57.55
2023-02-11T05:33:06.749Z,58.95
2023-02-11T05:35:33.388Z,53.22
2023-02-11T05:38:00.083Z,55.70
2023-02-11T05:40:26.863Z,56.50
2023-02-11T05:42:53.512Z,62.67
2023-02-11T05:45:20.172Z,58.78
2023-02-11T05:47:46.883Z,53.95
2023-02-11T05:50:13.477Z,60.35
2023-02-11T05:52:40.155Z,53.00
2023-02-11T05:55:07.119Z,59.05
2023-02-11T05:57:34.466Z,57.08
2023-02-11T06:00:01.334Z,56.13
2023-02-11T06:02:28.278Z,55.85
2023-02-11T06:04:54.987Z,59.10
2023-02-11T06:07:21.650Z,62.78
2023-02-11T06:09:48.386Z,59.90
2023-02-11T06:12:15.170Z,64.63
2023-02-11T06:14:42.156Z,67.32
2023-02-11T06:17:08.982Z,65.78
2023-02-11T06:19:35.690Z,63.17
2023-02-11T06:22:02.534Z,63.13
2023-02-11T06:24:54.696Z,66.00
2023-02-11T06:27:16.137Z,65.28
2023-02-11T06:29:42.910Z,62.35
2023-02-11T06:32:23.311Z,65.82
2023-02-11T06:34:56.245Z,68.00
2023-02-11T06:37:23.024Z,64.13
2023-02-11T06:39:49.777Z,64.47
2023-02-11T06:42:16.731Z,70.82
2023-02-11T06:44:43.539Z,66.82
2023-02-11T06:47:10.326Z,68.65
2023-02-11T06:49:36.930Z,64.82
2023-02-11T06:52:04.339Z,66.22
2023-02-11T06:54:31.125Z,62.83
2023-02-11T06:56:57.932Z,68.80
2023-02-11T06:59:24.935Z,57.78
2023-02-11T07:01:51.730Z,62.10
2023-02-11T07:04:19.611Z,62.63
2023-02-11T07:06:46.253Z,53.42
2023-02-11T07:09:12.990Z,55.10
2023-02-11T07:11:39.792Z,53.25
2023-02-11T07:14:08.825Z,57.10
2023-02-11T07:16:36.109Z,57.92
2023-02-11T07:19:02.953Z,62.25
2023-02-11T07:21:29.826Z,59.60
2023-02-11T07:23:56.618Z,61.60
2023-02-11T07:26:24.426Z,64.63
2023-02-11T07:28:52.022Z,63.25
2023-02-11T07:31:25.011Z,66.50
2023-02-11T07:33:53.577Z,62.95
2023-02-11T07:36:20.604Z,62.28
2023-02-11T07:38:47.675Z,61.67
2023-02-11T07:41:17.045Z,66.68
2023-02-11T07:43:44.506Z,62.42
2023-02-11T07:46:24.109Z,53.78
2023-02-11T07:48:51.085Z,57.53
2023-02-11T07:51:20.777Z,64.68
2023-02-11T07:53:48.066Z,61.10
2023-02-11T07:56:16.026Z,57.40
2023-02-11T07:58:43.348Z,59.88
2023-02-11T08:01:18.882Z,61.15
2023-02-11T08:03:45.708Z,57.90
2023-02-11T08:06:15.104Z,63.75
2023-02-11T08:08:42.102Z,61.78
2023-02-11T08:11:15.987Z,57.67
2023-02-11T08:13:43.122Z,61.47
2023-02-11T08:16:10.753Z,59.70
2023-02-11T08:18:40.365Z,60.88
2023-02-11T08:21:09.141Z,61.03
2023-02-11T08:23:40.381Z,60.50
2023-02-11T08:26:10.657Z,63.50
2023-02-11T08:28:38.889Z,57.40
2023-02-11T08:31:10.759Z,62.17
2023-02-11T08:33:37.792Z,62.72
2023-02-11T08:36:19.085Z,64.03
2023-02-11T08:38:46.123Z,58.70
2023-02-11T08:41:15.110Z,55.58
2023-02-11T08:43:45.034Z,60.42
2023-02-11T08:46:17.491Z,59.85
2023-02-11T08:48:45.325Z,57.17
2023-02-11T08:51:16.604Z,56.72
2023-02-11T08:53:43.438Z,60.15
2023-02-11T08:56:13.485Z,59.35
2023-02-11T08:58:41.471Z,57.95
2023-02-11T09:01:13.597Z,53.03
2023-02-11T09:03:40.558Z,54.05
2023-02-11T09:06:09.178Z,53.53
2023-02-11T09:08:41.384Z,54.92
2023-02-11T09:11:09.260Z,58.20
2023-02-11T09:13:36.551Z,54.42
2023-02-11T09:16:05.392Z,58.53
2023-02-11T09:18:32.773Z,57.88
2023-02-11T09:21:07.733Z,63.42
2023-02-11T09:23:34.782Z,60.92
2023-02-11T09:26:09.109Z,67.80
2023-02-11T09:28:36.279Z,61.60
2023-02-11T09:31:11.796Z,59.28
2023-02-11T09:33:39.663Z,62.22
2023-02-11T09:36:07.091Z,60.08
2023-02-11T09:38:33.880Z,58.20
2023-02-11T09:41:04.195Z,61.08
2023-02-11T09:43:43.429Z,57.45
2023-02-11T09:46:14.280Z,56.38
2023-02-11T09:48:43.574Z,56.22
2023-02-11T09:51:36.736Z,56.40
2023-02-11T09:54:08.151Z,59.65
2023-02-11T09:56:34.988Z,58.30
2023-02-11T09:59:01.797Z,57.67
2023-02-11T10:01:36.422Z,62.08
2023-02-11T10:04:25.773Z,57.88
2023-02-11T10:06:54.793Z,54.10
2023-02-11T10:09:59.192Z,59.03
2023-02-11T10:12:44.674Z,53.47
2023-02-11T10:15:40.313Z,57.55
2023-02-11T10:19:07.624Z,58.28
2023-02-11T10:21:50.825Z,58.83
2023-02-11T10:24:18.194Z,64.43
2023-02-11T10:26:46.257Z,59.05
2023-02-11T10:29:53.686Z,57.58
2023-02-11T10:32:51.354Z,56.03
2023-02-11T10:35:22.160Z,56.05
2023-02-11T10:37:49.650Z,57.58
2023-02-11T10:40:19.200Z,57.63
2023-02-11T10:42:49.792Z,58.95
2023-02-11T10:45:31.167Z,55.38
2023-02-11T10:47:59.805Z,59.80
2023-02-11T10:50:30.095Z,56.80
2023-02-11T10:53:20.784Z,51.38
2023-02-11T10:55:55.588Z,56.83
2023-02-11T10:58:28.636Z,53.10
2023-02-11T11:00:57.364Z,52.50
2023-02-11T11:03:26.334Z,52.95
2023-02-11T11:05:59.859Z,50.80
2023-02-11T11:08:50.534Z,51.55
2023-02-11T11:11:25.602Z,54.42
2023-02-11T11:13:59.298Z,56.33
2023-02-11T11:16:29.163Z,55.42
2023-02-11T11:19:25.570Z,54.35
2023-02-11T11:21:54.751Z,53.30
2023-02-11T11:24:32.142Z,54.35
2023-02-11T11:27:01.650Z,53.60
2023-02-11T11:29:40.554Z,54.65
2023-02-11T11:32:18.901Z,52.65
2023-02-11T11:34:55.956Z,50.65
2023-02-11T11:37:30.818Z,52.08
2023-02-11T11:40:30.794Z,49.13
2023-02-11T11:43:21.318Z,51.22
2023-02-11T11:45:58.156Z,53.00
2023-02-11T11:48:39.497Z,50.85
2023-02-11T11:51:09.345Z,49.38
2023-02-11T11:53:42.796Z,50.08
2023-02-11T11:56:22.787Z,51.05
2023-02-11T11:58:50.457Z,51.38
2023-02-11T12:01:35.126Z,47.03
2023-02-11T12:04:24.199Z,51.88
2023-02-11T12:07:24.788Z,47.75
2023-02-11T12:09:52.410Z,52.15
2023-02-11T12:12:47.508Z,49.40
2023-02-11T12:15:37.264Z,47.90
2023-02-11T12:18:33.527Z,45.78
2023-02-11T12:21:04.775Z,45.83
2023-02-11T12:23:44.496Z,46.88
2023-02-11T12:26:18.226Z,43.00
2023-02-11T12:28:57.044Z,46.65
2023-02-11T12:32:05.933Z,50.63
2023-02-11T12:35:09.711Z,45.05
2023-02-11T12:38:08.635Z,44.88
2023-02-11T12:41:15.817Z,45.15
2023-02-11T12:43:45.423Z,46.10
2023-02-11T12:46:45.584Z,44.88
2023-02-11T12:49:34.844Z,42.53
2023-02-11T12:52:30.827Z,41.97
2023-02-11T12:55:23.886Z,42.63
2023-02-11T12:57:51.852Z,47.97
2023-02-11T13:00:25.090Z,48.05
2023-02-11T13:03:23.693Z,53.83
2023-02-11T13:05:58.010Z,44.50
2023-02-11T13:11:15.209Z,42.10
2023-02-11T13:14:22.490Z,44.85
2023-02-11T13:16:50.539Z,48.30
2023-02-11T13:19:39.500Z,45.90
2023-02-11T13:22:39.143Z,50.70
2023-02-11T13:25:31.150Z,50.95
2023-02-11T13:28:04.499Z,45.60
2023-02-11T13:30:35.272Z,42.03
2023-02-11T13:33:03.894Z,50.42
2023-02-11T13:35:32.180Z,43.42
2023-02-11T13:38:04.573Z,41.40
2023-02-11T13:40:39.590Z,41.72
2023-02-11T13:43:12.195Z,43.50
2023-02-11T13:45:46.055Z,47.95
2023-02-11T13:48:22.474Z,51.85
2023-02-11T13:50:51.632Z,47.50
2023-02-11T13:53:19.306Z,44.45
2023-02-11T13:55:47.751Z,41.40
2023-02-11T13:58:37.382Z,41.47
2023-02-11T14:01:04.222Z,39.65
2023-02-11T14:03:52.525Z,37.13
2023-02-11T14:07:05.901Z,37.70
2023-02-11T14:09:35.893Z,34.95
2023-02-11T14:12:33.270Z,33.88
2023-02-11T14:15:21.386Z,38.58
2023-02-11T14:17:48.619Z,37.92
2023-02-11T14:20:37.302Z,34.15
2023-02-11T14:23:05.193Z,35.10
2023-02-11T14:25:32.322Z,40.70
2023-02-11T14:28:16.937Z,37.38
2023-02-11T14:31:02.686Z,38.55
2023-02-11T14:33:44.836Z,38.47
2023-02-11T14:36:44.124Z,38.78
2023-02-11T14:39:29.357Z,36.28
2023-02-11T14:41:56.392Z,39.58
2023-02-11T14:44:28.591Z,37.85
2023-02-11T14:46:56.435Z,40.03
2023-02-11T14:49:37.145Z,35.30
2023-02-11T14:52:34.614Z,39.05
2023-02-11T14:55:35.009Z,35.38
2023-02-11T14:58:17.134Z,37.45
2023-02-11T15:00:58.426Z,35.47
2023-02-11T15:03:40.408Z,40.00
2023-02-11T15:06:22.053Z,40.20
2023-02-11T15:08:52.320Z,39.45
2023-02-11T15:11:21.979Z,35.42
2023-02-11T15:13:50.106Z,37.70
2023-02-11T15:16:23.876Z,37.22
2023-02-11T15:18:56.550Z,39.30
2023-02-11T15:21:30.065Z,40.40
2023-02-11T15:24:00.019Z,39.73
2023-02-11T15:26:26.892Z,40.90
2023-02-11T15:28:53.640Z,41.47
2023-02-11T15:31:25.831Z,37.05
2023-02-11T15:33:53.168Z,38.95
2023-02-11T15:36:24.219Z,45.08
2023-02-11T15:39:16.604Z,39.85
2023-02-11T15:41:45.013Z,42.90
2023-02-11T15:44:32.555Z,46.67
2023-02-11T15:46:59.687Z,42.33
2023-02-11T15:49:26.955Z,39.88
2023-02-11T15:51:55.774Z,38.28
2023-02-11T15:54:27.970Z,41.40
2023-02-11T15:57:00.218Z,40.03
2023-02-11T15:59:33.458Z,37.22
2023-02-11T16:02:18.058Z,40.20
2023-02-11T16:07:50.960Z,39.50
2023-02-11T16:10:37.968Z,35.95
2023-02-11T16:13:24.076Z,37.25
2023-02-11T16:16:05.163Z,37.25
2023-02-11T16:18:40.346Z,40.75
2023-02-11T16:21:17.772Z,37.83
2023-02-11T16:23:51.627Z,37.20
2023-02-11T16:26:33.662Z,38.75
2023-02-11T16:29:18.786Z,40.63
2023-02-11T16:31:47.512Z,41.15
2023-02-11T16:34:20.097Z,38.75
2023-02-11T16:36:47.905Z,43.33
2023-02-11T16:39:15.039Z,41.53
2023-02-11T16:41:41.948Z,43.00
2023-02-11T16:44:09.168Z,42.25
2023-02-11T16:46:37.264Z,42.63
2023-02-11T16:49:12.836Z,40.55
2023-02-11T16:51:41.260Z,45.95
2023-02-11T16:54:12.610Z,44.38
2023-02-11T16:56:39.447Z,48.10
2023-02-11T16:59:06.321Z,52.58
2023-02-11T17:01:33.417Z,49.30
2023-02-11T17:04:00.247Z,51.53
2023-02-11T17:06:28.270Z,46.00
2023-02-11T17:08:55.077Z,43.65
2023-02-11T17:11:22.121Z,47.47
2023-02-11T17:13:48.893Z,47.10
2023-02-11T17:16:18.584Z,47.33
2023-02-11T17:18:45.683Z,44.28
2023-02-11T17:21:12.672Z,49.25
2023-02-11T17:23:39.768Z,53.83
2023-02-11T17:26:10.937Z,49.28
2023-02-11T17:28:37.680Z,51.67
2023-02-11T17:31:08.520Z,47.60
2023-02-11T17:33:36.284Z,49.53
2023-02-11T17:36:10.211Z,47.95
2023-02-11T17:38:37.466Z,48.53
2023-02-11T17:41:05.232Z,42.05
2023-02-11T17:43:32.380Z,46.75
2023-02-11T17:45:59.173Z,42.92
2023-02-11T17:48:25.989Z,44.95
2023-02-11T17:50:52.656Z,50.42
2023-02-11T17:53:19.339Z,48.88
2023-02-11T17:55:46.252Z,49.55
2023-02-11T17:58:13.049Z,56.47
2023-02-11T18:00:39.930Z,57.40
2023-02-11T18:03:06.832Z,70.28
2023-02-11T18:05:35.428Z,61.30
2023-02-11T18:08:02.907Z,64.93
2023-02-11T18:10:29.863Z,55.42
2023-02-11T18:13:01.330Z,55.55
2023-02-11T18:15:28.042Z,55.00
2023-02-11T18:17:55.928Z,52.38
2023-02-11T18:20:22.730Z,47.60
2023-02-11T18:22:49.548Z,51.63
2023-02-11T18:25:16.598Z,56.35
2023-02-11T18:27:43.487Z,53.53
2023-02-11T18:30:18.508Z,54.40
2023-02-11T18:32:45.715Z,50.75
2023-02-11T18:35:15.254Z,52.65
2023-02-11T18:37:43.108Z,65.45
2023-02-11T18:40:11.320Z,61.35
2023-02-11T18:42:38.921Z,64.95
2023-02-11T18:45:11.725Z,61.72
2023-02-11T18:47:39.045Z,55.03
2023-02-11T18:50:07.738Z,54.55
2023-02-11T18:52:37.095Z,54.53
2023-02-11T18:55:08.273Z,52.70
2023-02-11T18:57:35.056Z,54.60
2023-02-11T19:00:01.773Z,51.80
2023-02-11T19:02:29.527Z,54.13
2023-02-11T19:04:56.249Z,53.92
2023-02-11T19:07:22.864Z,54.05
2023-02-11T19:09:49.813Z,52.38
2023-02-11T19:12:16.542Z,55.88
2023-02-11T19:14:43.211Z,54.58
2023-02-11T19:17:12.318Z,57.47
2023-02-11T19:19:39.037Z,51.97
2023-02-11T19:22:10.522Z,56.05
2023-02-11T19:24:37.763Z,57.10
2023-02-11T19:27:05.495Z,60.45
2023-02-11T19:29:35.507Z,59.63
2023-02-11T19:32:06.457Z,60.97
2023-02-11T19:34:33.357Z,57.83
2023-02-11T19:37:01.840Z,57.60
2023-02-11T19:39:28.644Z,63.97
2023-02-11T19:41:55.556Z,62.25
2023-02-11T19:44:22.497Z,59.90
2023-02-11T19:46:50.403Z,61.80
2023-02-11T19:49:23.253Z,61.15
2023-02-11T19:51:51.098Z,57.83
2023-02-11T19:54:17.787Z,49.30
2023-02-11T19:56:45.099Z,51.25
2023-02-11T19:59:12.294Z,48.35
2023-02-11T20:01:39.255Z,48.88
2023-02-11T20:04:06.655Z,49.85
2023-02-11T20:06:35.423Z,45.90
2023-02-11T20:09:07.805Z,49.05
2023-02-11T20:11:35.089Z,50.60
2023-02-11T20:14:02.545Z,50.38
2023-02-11T20:16:46.869Z,52.00
2023-02-11T20:19:18.492Z,53.47
2023-02-11T20:21:47.566Z,53.65
2023-02-11T20:24:15.364Z,53.58
2023-02-11T20:26:42.674Z,62.25
2023-02-11T20:29:09.854Z,63.95
2023-02-11T20:31:37.000Z,64.78
2023-02-11T20:34:04.217Z,61.53
2023-02-11T20:36:35.888Z,53.47
2023-02-11T20:39:05.088Z,56.75
2023-02-11T20:41:34.526Z,57.50
2023-02-11T20:44:04.304Z,56.25
2023-02-11T20:46:33.204Z,61.58
2023-02-11T20:49:00.643Z,49.20
2023-02-11T20:51:30.055Z,50.38
2023-02-11T20:53:57.055Z,52.55
2023-02-11T20:56:26.217Z,52.45
2023-02-11T20:58:56.941Z,55.88
2023-02-11T21:01:32.667Z,60.38
2023-02-11T21:04:02.584Z,61.83
2023-02-11T21:06:36.269Z,61.20
2023-02-11T21:09:04.765Z,63.38
2023-02-11T21:11:31.614Z,60.67
2023-02-11T21:13:58.589Z,61.30
2023-02-11T21:16:25.513Z,66.63
2023-02-11T21:18:52.561Z,65.97
2023-02-11T21:21:19.877Z,67.53
2023-02-11T21:23:47.275Z,66.70
2023-02-11T21:26:15.106Z,64.05
2023-02-11T21:28:41.903Z,67.40
2023-02-11T21:31:09.283Z,59.38
2023-02-11T21:33:36.211Z,68.35
2023-02-11T21:36:04.729Z,62.03
2023-02-11T21:38:31.406Z,64.53
2023-02-11T21:41:04.205Z,63.15
2023-02-11T21:43:31.294Z,70.15
2023-02-11T21:45:57.997Z,69.22
2023-02-11T21:48:25.902Z,68.57
2023-02-11T21:50:53.174Z,61.08
2023-02-11T21:53:20.495Z,60.90
2023-02-11T21:55:47.243Z,61.15
2023-02-11T21:58:14.474Z,67.65
2023-02-11T22:00:41.292Z,59.92
2023-02-11T22:03:08.132Z,67.07
2023-02-11T22:05:34.782Z,63.20
2023-02-11T22:08:01.465Z,57.85
2023-02-11T22:10:28.219Z,63.40
2023-02-11T22:12:54.864Z,57.78
2023-02-11T22:15:21.507Z,58.88
2023-02-11T22:17:48.199Z,56.40
2023-02-11T22:20:16.329Z,57.95
2023-02-11T22:22:42.963Z,52.05
2023-02-11T22:25:09.846Z,54.15
2023-02-11T22:27:36.699Z,55.00
2023-02-11T22:30:03.921Z,58.65
2023-02-11T22:32:30.651Z,62.47
2023-02-11T22:34:57.635Z,67.00
2023-02-11T22:37:24.375Z,67.88
2023-02-11T22:39:50.999Z,74.85
2023-02-11T22:42:17.831Z,83.13
2023-02-11T22:44:44.637Z,80.03
2023-02-11T22:47:11.341Z,73.70
2023-02-11T22:49:39.750Z,69.82
2023-02-11T22:52:06.480Z,71.60
2023-02-11T22:54:33.118Z,71.05
2023-02-11T22:56:59.743Z,66.03
2023-02-11T22:59:26.331Z,70.63
2023-02-11T23:01:53.234Z,69.25
2023-02-11T23:04:21.274Z,68.68
2023-02-11T23:06:48.044Z,72.35
2023-02-11T23:09:15.155Z,74.18
2023-02-11T23:11:42.021Z,67.25
2023-02-11T23:14:10.418Z,70.45
2023-02-11T23:16:37.202Z,66.97
2023-02-11T23:19:07.151Z,69.53
2023-02-11T23:21:35.670Z,68.70
2023-02-11T23:24:06.089Z,69.30
2023-02-11T23:26:32.842Z,74.00
2023-02-11T23:29:00.670Z,70.43
2023-02-11T23:31:34.307Z,71.00
2023-02-11T23:34:01.562Z,71.53
2023-02-11T23:36:28.444Z,71.13
2023-02-11T23:38:55.108Z,69.68
2023-02-11T23:41:22.181Z,72.85
2023-02-11T23:43:59.012Z,70.40
2023-02-11T23:46:26.759Z,69.05
2023-02-11T23:48:53.751Z,68.03
2023-02-11T23:51:20.693Z,64.07
2023-02-11T23:53:49.388Z,64.63
2023-02-11T23:56:21.803Z,72.95
2023-02-11T23:58:49.794Z,65.82
